createdAt,value
2019-03-26T00:00:57.321Z,87.50
2019-03-26T00:03:27.252Z,87.60
2019-03-26T00:05:57.244Z,87.43
2019-03-26T00:08:27.235Z,87.48
2019-03-26T00:10:57.175Z,87.26
2019-03-26T00:13:27.173Z,87.80
2019-03-26T00:15:57.217Z,88.24
2019-03-26T00:18:27.184Z,87.92
2019-03-26T00:20:57.145Z,87.58
2019-03-26T00:23:27.104Z,87.40
2019-03-26T00:25:57.150Z,87.51
2019-03-26T00:28:27.153Z,87.57
2019-03-26T00:30:57.052Z,87.46
2019-03-26T00:33:36.190Z,87.24
2019-03-26T00:35:58.549Z,87.26
2019-03-26T00:38:28.945Z,87.91
2019-03-26T00:40:59.239Z,87.53
2019-03-26T00:43:29.185Z,87.37
2019-03-26T00:45:59.055Z,87.60
2019-03-26T00:48:28.945Z,86.98
2019-03-26T00:50:58.967Z,86.77
2019-03-26T00:53:28.819Z,87.16
2019-03-26T00:55:58.819Z,87.15
2019-03-26T00:58:28.662Z,87.25
2019-03-26T01:00:58.642Z,87.62
2019-03-26T01:03:28.674Z,86.69
2019-03-26T01:05:58.961Z,87.06
2019-03-26T01:08:28.938Z,87.08
2019-03-26T01:10:59.068Z,86.49
2019-03-26T01:13:31.123Z,86.67
2019-03-26T01:16:01.058Z,86.57
2019-03-26T01:18:30.980Z,85.89
2019-03-26T01:21:00.898Z,86.25
2019-03-26T01:23:32.891Z,86.01
2019-03-26T01:26:03.360Z,86.05
2019-03-26T01:28:33.440Z,85.59
2019-03-26T01:31:03.857Z,86.13
2019-03-26T01:33:33.800Z,86.28
2019-03-26T01:36:04.531Z,86.05
2019-03-26T01:38:34.473Z,85.64
2019-03-26T01:41:04.864Z,86.13
2019-03-26T01:43:34.773Z,85.84
2019-03-26T01:46:04.841Z,86.27
2019-03-26T01:48:35.181Z,85.81
2019-03-26T01:51:05.119Z,85.74
2019-03-26T01:53:35.109Z,85.70
2019-03-26T01:56:05.162Z,86.04
2019-03-26T01:58:35.308Z,85.93
2019-03-26T02:01:05.113Z,85.86
2019-03-26T02:03:35.068Z,85.92
2019-03-26T02:06:05.243Z,86.09
2019-03-26T02:08:35.278Z,85.98
2019-03-26T02:11:05.235Z,85.78
2019-03-26T02:13:36.431Z,86.04
2019-03-26T02:16:06.668Z,85.94
2019-03-26T02:18:36.653Z,86.52
2019-03-26T02:21:06.589Z,86.05
2019-03-26T02:23:36.480Z,86.24
2019-03-26T02:26:06.411Z,86.35
2019-03-26T02:28:36.230Z,86.71
2019-03-26T02:31:06.054Z,86.52
2019-03-26T02:33:35.959Z,86.52
2019-03-26T02:36:05.989Z,85.63
2019-03-26T02:38:36.009Z,85.90
2019-03-26T02:41:05.865Z,85.99
2019-03-26T02:43:35.807Z,85.71
2019-03-26T02:46:05.643Z,85.58
2019-03-26T02:48:35.598Z,84.82
2019-03-26T02:51:05.477Z,84.58
2019-03-26T02:53:35.454Z,84.42
2019-03-26T02:56:05.514Z,84.27
2019-03-26T02:58:35.420Z,84.36
2019-03-26T03:01:05.368Z,83.98
2019-03-26T03:03:35.351Z,83.79
2019-03-26T03:06:05.161Z,83.69
2019-03-26T03:08:35.019Z,83.43
2019-03-26T03:11:04.981Z,83.41
2019-03-26T03:13:34.860Z,84.25
2019-03-26T03:16:04.842Z,84.07
2019-03-26T03:18:34.878Z,83.89
2019-03-26T03:21:04.839Z,83.95
2019-03-26T03:23:34.766Z,84.14
2019-03-26T03:26:04.675Z,84.13
2019-03-26T03:28:35.032Z,84.01
2019-03-26T03:31:04.970Z,83.39
2019-03-26T03:33:34.976Z,83.87
2019-03-26T03:36:05.463Z,83.81
2019-03-26T03:38:35.433Z,83.10
2019-03-26T03:41:05.236Z,83.55
2019-03-26T03:43:35.052Z,83.21
2019-03-26T03:46:05.568Z,83.16
2019-03-26T03:48:35.969Z,82.71
2019-03-26T03:51:06.209Z,82.22
2019-03-26T03:53:36.374Z,81.50
2019-03-26T03:56:06.378Z,82.05
2019-03-26T03:58:37.798Z,81.65
2019-03-26T04:01:07.637Z,81.83
2019-03-26T04:03:37.647Z,81.57
2019-03-26T04:06:09.742Z,81.50
2019-03-26T04:08:39.520Z,81.19
2019-03-26T04:11:09.365Z,80.87
2019-03-26T04:13:39.249Z,81.38
2019-03-26T04:16:09.209Z,81.31
2019-03-26T04:18:39.166Z,81.43
2019-03-26T04:21:09.071Z,81.39
2019-03-26T04:23:39.933Z,81.27
2019-03-26T04:26:09.825Z,81.75
2019-03-26T04:28:39.725Z,81.69
2019-03-26T04:31:09.615Z,81.46
2019-03-26T04:33:39.538Z,81.51
2019-03-26T04:36:24.814Z,80.00
2019-03-26T04:38:41.151Z,78.94
2019-03-26T04:41:10.987Z,79.50
2019-03-26T04:43:40.872Z,78.99
2019-03-26T04:46:10.855Z,78.62
2019-03-26T04:48:40.812Z,78.28
2019-03-26T04:51:10.636Z,77.19
2019-03-26T04:53:41.152Z,74.27
2019-03-26T04:56:11.453Z,72.71
2019-03-26T04:58:43.866Z,72.60
2019-03-26T05:01:13.002Z,71.86
2019-03-26T05:03:43.071Z,72.67
2019-03-26T05:06:12.954Z,72.40
2019-03-26T05:08:42.838Z,72.37
2019-03-26T05:11:12.763Z,72.35
2019-03-26T05:13:42.682Z,72.67
2019-03-26T05:16:12.649Z,73.59
2019-03-26T05:18:42.675Z,73.58
2019-03-26T05:21:12.616Z,73.59
2019-03-26T05:23:42.501Z,73.58
2019-03-26T05:26:12.452Z,74.42
2019-03-26T05:28:42.437Z,74.63
2019-03-26T05:31:12.416Z,75.22
2019-03-26T05:33:42.319Z,75.23
2019-03-26T05:36:12.302Z,75.27
2019-03-26T05:38:42.306Z,75.42
2019-03-26T05:41:12.291Z,75.89
2019-03-26T05:43:42.543Z,76.31
2019-03-26T05:46:12.437Z,76.20
2019-03-26T05:48:42.449Z,76.46
2019-03-26T05:51:12.486Z,76.64
2019-03-26T05:53:42.366Z,76.51
2019-03-26T05:56:12.316Z,76.56
2019-03-26T05:58:43.462Z,76.78
2019-03-26T06:01:13.480Z,76.59
2019-03-26T06:03:43.301Z,76.71
2019-03-26T06:06:13.234Z,75.73
2019-03-26T06:08:43.120Z,76.54
2019-03-26T06:11:13.085Z,76.28
2019-03-26T06:13:43.065Z,76.10
2019-03-26T06:16:12.933Z,75.79
2019-03-26T06:18:42.780Z,75.66
2019-03-26T06:21:13.754Z,75.44
2019-03-26T06:23:43.793Z,75.78
2019-03-26T06:26:14.014Z,75.58
2019-03-26T06:28:43.950Z,74.76
2019-03-26T06:31:13.890Z,74.87
2019-03-26T06:33:43.849Z,74.27
2019-03-26T06:36:14.075Z,74.03
2019-03-26T06:38:43.994Z,73.83
2019-03-26T06:41:14.207Z,73.17
2019-03-26T06:43:44.129Z,72.82
2019-03-26T06:46:14.016Z,73.56
2019-03-26T06:48:44.032Z,73.45
2019-03-26T06:51:14.052Z,74.33
2019-03-26T06:53:43.983Z,73.21
2019-03-26T06:56:13.883Z,73.97
2019-03-26T06:58:44.248Z,73.56
2019-03-26T07:01:14.106Z,73.65
2019-03-26T07:03:44.046Z,73.50
2019-03-26T07:06:14.262Z,73.17
2019-03-26T07:08:44.250Z,73.42
2019-03-26T07:11:14.180Z,73.52
2019-03-26T07:13:44.223Z,73.56
2019-03-26T07:16:14.279Z,74.09
2019-03-26T07:18:44.177Z,73.56
2019-03-26T07:21:14.039Z,73.67
2019-03-26T07:23:43.880Z,73.75
2019-03-26T07:26:13.785Z,73.40
2019-03-26T07:28:43.635Z,73.25
2019-03-26T07:31:13.448Z,73.25
2019-03-26T07:33:43.292Z,72.42
2019-03-26T07:36:13.191Z,73.23
2019-03-26T07:38:43.067Z,72.90
2019-03-26T07:41:12.994Z,73.30
2019-03-26T07:43:42.898Z,74.21
2019-03-26T07:46:12.802Z,72.87
2019-03-26T07:48:42.745Z,72.96
2019-03-26T07:51:12.617Z,72.29
2019-03-26T07:53:43.920Z,72.51
2019-03-26T07:56:15.859Z,72.66
2019-03-26T07:58:45.797Z,71.67
2019-03-26T08:01:15.630Z,71.54
2019-03-26T08:03:45.577Z,71.81
2019-03-26T08:06:15.599Z,70.93
2019-03-26T08:08:45.454Z,69.32
2019-03-26T08:11:15.321Z,70.12
2019-03-26T08:13:46.126Z,69.83
2019-03-26T08:16:16.097Z,68.27
2019-03-26T08:18:45.935Z,67.26
2019-03-26T08:21:15.868Z,66.29
2019-03-26T08:23:46.215Z,64.14
2019-03-26T08:26:16.135Z,63.77
2019-03-26T08:28:46.072Z,64.54
2019-03-26T08:31:15.929Z,65.41
2019-03-26T08:33:45.981Z,65.40
2019-03-26T08:36:16.011Z,64.15
2019-03-26T08:38:45.842Z,63.99
2019-03-26T08:41:15.655Z,62.63
2019-03-26T08:43:45.565Z,62.32
2019-03-26T08:46:15.928Z,63.38
2019-03-26T08:48:45.770Z,63.86
2019-03-26T08:51:15.683Z,62.95
2019-03-26T08:53:45.553Z,62.10
2019-03-26T08:56:15.370Z,63.89
2019-03-26T08:58:45.213Z,65.41
2019-03-26T09:01:15.066Z,66.71
2019-03-26T09:03:45.042Z,68.38
2019-03-26T09:06:14.995Z,69.34
2019-03-26T09:08:44.769Z,70.79
2019-03-26T09:11:14.974Z,67.69
2019-03-26T09:13:45.327Z,70.32
2019-03-26T09:16:15.265Z,72.16
2019-03-26T09:18:45.142Z,73.11
2019-03-26T09:21:14.962Z,74.00
2019-03-26T09:23:44.851Z,73.47
2019-03-26T09:26:14.828Z,72.87
2019-03-26T09:28:47.686Z,74.60
2019-03-26T09:31:16.207Z,76.21
2019-03-26T09:33:46.067Z,75.30
2019-03-26T09:36:16.587Z,76.63
2019-03-26T09:38:46.780Z,76.49
2019-03-26T09:41:16.780Z,75.80
2019-03-26T09:43:46.737Z,76.39
2019-03-26T09:46:16.741Z,75.11
2019-03-26T09:48:46.590Z,74.82
2019-03-26T09:51:16.836Z,74.15
2019-03-26T09:53:48.229Z,73.55
2019-03-26T09:56:28.108Z,75.29
2019-03-26T09:58:49.769Z,75.85
2019-03-26T10:01:21.320Z,75.66
2019-03-26T10:03:51.092Z,76.64
2019-03-26T10:06:23.576Z,76.27
2019-03-26T10:08:53.614Z,77.12
2019-03-26T10:11:23.423Z,76.14
2019-03-26T10:13:53.366Z,74.43
2019-03-26T10:16:23.281Z,73.37
2019-03-26T10:18:53.464Z,74.85
2019-03-26T10:21:23.361Z,70.30
2019-03-26T10:23:53.231Z,68.83
2019-03-26T10:26:23.333Z,71.52
2019-03-26T10:28:53.251Z,70.67
2019-03-26T10:31:23.195Z,67.40
2019-03-26T10:33:53.049Z,67.41
2019-03-26T10:36:28.898Z,67.59
2019-03-26T10:39:05.588Z,65.36
2019-03-26T10:41:30.324Z,67.32
2019-03-26T10:44:02.086Z,68.87
2019-03-26T10:46:31.992Z,68.60
2019-03-26T10:49:01.886Z,67.55
2019-03-26T10:51:31.724Z,64.93
2019-03-26T10:54:01.608Z,64.85
2019-03-26T10:56:32.722Z,61.87
2019-03-26T10:59:04.134Z,62.45
2019-03-26T11:01:34.554Z,61.83
2019-03-26T11:04:07.523Z,63.14
2019-03-26T11:06:37.087Z,60.46
2019-03-26T11:09:20.069Z,60.72
2019-03-26T11:11:41.041Z,60.68
2019-03-26T11:14:12.120Z,63.18
2019-03-26T11:16:56.540Z,60.61
2019-03-26T11:19:26.360Z,64.90
2019-03-26T11:21:56.206Z,69.96
2019-03-26T11:24:25.994Z,71.45
2019-03-26T11:26:56.028Z,70.61
2019-03-26T11:29:25.867Z,72.42
2019-03-26T11:31:55.775Z,73.04
2019-03-26T11:34:26.033Z,72.17
2019-03-26T11:37:01.814Z,71.55
2019-03-26T11:39:33.120Z,71.61
2019-03-26T11:42:03.131Z,72.14
2019-03-26T11:44:32.948Z,73.35
2019-03-26T11:47:02.941Z,75.35
2019-03-26T11:49:32.839Z,78.14
2019-03-26T11:52:02.669Z,81.71
2019-03-26T11:54:32.455Z,83.28
2019-03-26T11:57:02.506Z,85.37
2019-03-26T11:59:32.301Z,86.94
2019-03-26T12:02:02.256Z,87.13
2019-03-26T12:04:32.068Z,88.84
2019-03-26T12:07:08.455Z,85.92
2019-03-26T12:09:46.282Z,85.64
2019-03-26T12:12:09.824Z,84.99
2019-03-26T12:14:39.975Z,82.68
2019-03-26T12:17:18.929Z,82.79
2019-03-26T12:19:49.023Z,81.02
2019-03-26T12:22:18.992Z,81.98
2019-03-26T12:24:48.912Z,81.98
2019-03-26T12:27:20.904Z,81.41
2019-03-26T12:29:50.690Z,82.89
2019-03-26T12:32:20.630Z,82.57
2019-03-26T12:34:50.569Z,82.76
2019-03-26T12:37:20.492Z,82.85
2019-03-26T12:39:59.319Z,83.08
2019-03-26T12:42:21.879Z,82.53
2019-03-26T12:44:51.807Z,81.86
2019-03-26T12:47:21.823Z,82.71
2019-03-26T12:49:51.588Z,83.29
2019-03-26T12:52:21.619Z,82.12
2019-03-26T12:54:51.628Z,82.87
2019-03-26T12:57:21.549Z,80.60
2019-03-26T12:59:51.355Z,81.85
2019-03-26T13:02:21.236Z,80.81
2019-03-26T13:04:51.117Z,80.81
2019-03-26T13:07:21.099Z,78.58
2019-03-26T13:09:51.042Z,79.01
2019-03-26T13:12:21.037Z,79.03
2019-03-26T13:14:50.982Z,79.02
2019-03-26T13:17:20.997Z,79.96
2019-03-26T13:19:50.907Z,80.53
2019-03-26T13:22:20.770Z,79.25
2019-03-26T13:24:50.629Z,79.84
2019-03-26T13:27:20.669Z,78.28
2019-03-26T13:29:50.845Z,78.29
2019-03-26T13:32:23.064Z,77.96
2019-03-26T13:34:53.512Z,77.61
2019-03-26T13:37:31.763Z,79.47
2019-03-26T13:40:09.808Z,79.82
2019-03-26T13:42:41.149Z,79.63
2019-03-26T13:45:11.029Z,79.75
2019-03-26T13:47:40.998Z,79.16
2019-03-26T13:50:10.932Z,80.76
2019-03-26T13:52:41.937Z,80.42
2019-03-26T13:55:11.837Z,79.70
2019-03-26T13:57:42.063Z,81.01
2019-03-26T14:00:12.112Z,80.86
2019-03-26T14:02:41.920Z,82.23
2019-03-26T14:05:23.495Z,81.90
2019-03-26T14:07:53.472Z,82.44
2019-03-26T14:10:23.398Z,83.42
2019-03-26T14:12:53.237Z,82.15
2019-03-26T14:15:23.207Z,82.13
2019-03-26T14:17:53.221Z,82.65
2019-03-26T14:20:23.126Z,82.49
2019-03-26T14:22:53.736Z,82.86
2019-03-26T14:25:23.599Z,82.98
2019-03-26T14:27:53.541Z,83.79
2019-03-26T14:30:38.787Z,84.40
2019-03-26T14:33:08.800Z,84.86
2019-03-26T14:35:38.774Z,85.16
2019-03-26T14:38:08.815Z,85.05
2019-03-26T14:40:38.732Z,85.69
2019-03-26T14:43:08.700Z,85.98
2019-03-26T14:45:42.193Z,85.72
2019-03-26T14:48:10.924Z,85.43
2019-03-26T14:50:41.447Z,84.61
2019-03-26T14:53:11.442Z,84.12
2019-03-26T14:55:41.282Z,83.50
2019-03-26T14:58:11.303Z,83.58
2019-03-26T15:00:41.179Z,81.90
2019-03-26T15:03:12.380Z,80.07
2019-03-26T15:05:42.260Z,81.41
2019-03-26T15:08:12.285Z,80.91
2019-03-26T15:10:42.334Z,80.31
2019-03-26T15:13:12.176Z,78.81
2019-03-26T15:15:42.231Z,77.06
2019-03-26T15:18:12.447Z,78.31
2019-03-26T15:20:43.040Z,77.91
2019-03-26T15:23:13.619Z,77.38
2019-03-26T15:25:44.237Z,78.07
2019-03-26T15:28:14.346Z,78.20
2019-03-26T15:30:44.434Z,78.38
2019-03-26T15:33:14.481Z,78.83
2019-03-26T15:35:44.529Z,78.14
2019-03-26T15:38:14.427Z,78.56
2019-03-26T15:40:44.387Z,78.34
2019-03-26T15:43:14.536Z,78.56
2019-03-26T15:45:44.655Z,78.94
2019-03-26T15:48:14.750Z,78.44
2019-03-26T15:50:46.608Z,79.25
2019-03-26T15:53:17.855Z,78.74
2019-03-26T15:55:48.035Z,77.78
2019-03-26T15:58:18.050Z,78.31
2019-03-26T16:00:48.217Z,78.78
2019-03-26T16:03:18.249Z,78.59
2019-03-26T16:05:48.298Z,78.06
2019-03-26T16:08:18.452Z,77.05
2019-03-26T16:10:48.763Z,76.96
2019-03-26T16:13:18.889Z,77.10
2019-03-26T16:15:51.716Z,77.43
2019-03-26T16:18:20.925Z,77.69
2019-03-26T16:20:50.984Z,76.80
2019-03-26T16:23:21.217Z,77.55
2019-03-26T16:25:51.254Z,76.61
2019-03-26T16:28:21.634Z,76.22
2019-03-26T16:30:51.810Z,76.32
2019-03-26T16:33:21.991Z,76.61
2019-03-26T16:35:52.220Z,76.61
2019-03-26T16:38:23.597Z,76.42
2019-03-26T16:40:53.807Z,75.87
2019-03-26T16:43:25.023Z,75.93
2019-03-26T16:46:01.860Z,75.44
2019-03-26T16:48:32.162Z,75.71
2019-03-26T16:51:02.469Z,76.62
2019-03-26T16:53:32.641Z,77.40
2019-03-26T16:56:03.837Z,78.40
2019-03-26T16:58:35.975Z,78.89
2019-03-26T17:01:07.118Z,79.38
2019-03-26T17:03:37.322Z,79.20
2019-03-26T17:06:07.562Z,79.52
2019-03-26T17:08:40.008Z,79.01
2019-03-26T17:11:10.277Z,78.80
2019-03-26T17:13:40.381Z,78.63
2019-03-26T17:16:10.923Z,78.45
2019-03-26T17:18:41.223Z,78.01
2019-03-26T17:21:11.353Z,77.75
2019-03-26T17:23:41.587Z,77.61
2019-03-26T17:26:11.812Z,77.73
2019-03-26T17:28:41.955Z,77.73
2019-03-26T17:31:12.163Z,77.70
2019-03-26T17:33:42.406Z,77.88
2019-03-26T17:36:12.617Z,77.45
2019-03-26T17:38:43.246Z,77.14
2019-03-26T17:41:13.367Z,76.47
2019-03-26T17:43:43.614Z,76.80
2019-03-26T17:46:13.911Z,76.50
2019-03-26T17:48:44.318Z,76.31
2019-03-26T17:51:14.443Z,76.13
2019-03-26T17:53:44.927Z,75.70
2019-03-26T17:56:15.038Z,76.15
2019-03-26T17:58:45.275Z,76.15
2019-03-26T18:01:18.008Z,75.90
2019-03-26T18:03:48.791Z,75.75
2019-03-26T18:06:19.143Z,75.25
2019-03-26T18:08:49.397Z,75.05
2019-03-26T18:11:19.837Z,75.37
2019-03-26T18:13:49.951Z,75.21
2019-03-26T18:16:20.313Z,75.09
2019-03-26T18:18:50.591Z,75.41
2019-03-26T18:21:20.957Z,75.37
2019-03-26T18:23:51.209Z,75.46
2019-03-26T18:26:21.469Z,75.37
2019-03-26T18:28:51.899Z,75.31
2019-03-26T18:31:22.197Z,75.06
2019-03-26T18:33:52.874Z,74.91
2019-03-26T18:36:23.204Z,75.01
2019-03-26T18:38:53.403Z,74.89
2019-03-26T18:41:23.682Z,74.85
2019-03-26T18:43:53.957Z,75.10
2019-03-26T18:46:24.222Z,75.12
2019-03-26T18:48:54.477Z,74.97
2019-03-26T18:51:24.621Z,75.53
2019-03-26T18:53:54.979Z,75.65
2019-03-26T18:56:25.321Z,75.64
2019-03-26T18:58:55.519Z,75.52
2019-03-26T19:01:25.978Z,75.35
2019-03-26T19:03:56.318Z,75.57
2019-03-26T19:06:27.038Z,75.87
2019-03-26T19:08:57.439Z,76.00
2019-03-26T19:11:27.752Z,75.94
2019-03-26T19:13:58.021Z,75.98
2019-03-26T19:16:29.976Z,75.90
2019-03-26T19:19:00.256Z,75.84
2019-03-26T19:21:31.042Z,75.91
2019-03-26T19:24:04.303Z,75.98
2019-03-26T19:26:33.242Z,75.78
2019-03-26T19:29:03.728Z,75.69
2019-03-26T19:31:33.877Z,75.75
2019-03-26T19:34:04.224Z,75.93
2019-03-26T19:36:35.164Z,75.81
2019-03-26T19:39:07.879Z,75.81
2019-03-26T19:41:38.741Z,75.84
2019-03-26T19:44:08.996Z,75.81
2019-03-26T19:46:39.504Z,75.96
2019-03-26T19:49:09.883Z,75.87
2019-03-26T19:51:40.323Z,76.41
2019-03-26T19:54:10.580Z,76.31
2019-03-26T19:56:40.878Z,76.40
2019-03-26T19:59:11.265Z,76.45
2019-03-26T20:01:42.439Z,76.48
2019-03-26T20:04:12.712Z,76.49
2019-03-26T20:06:42.971Z,76.47
2019-03-26T20:09:13.119Z,76.33
2019-03-26T20:11:44.404Z,76.56
2019-03-26T20:14:16.161Z,76.78
2019-03-26T20:16:46.454Z,77.46
2019-03-26T20:19:16.691Z,77.51
2019-03-26T20:21:49.716Z,77.57
2019-03-26T20:24:19.055Z,77.52
2019-03-26T20:26:49.220Z,77.97
2019-03-26T20:29:19.480Z,77.84
2019-03-26T20:31:51.064Z,77.85
2019-03-26T20:34:21.306Z,77.73
2019-03-26T20:36:51.636Z,77.82
2019-03-26T20:39:22.275Z,78.13
2019-03-26T20:41:52.455Z,78.16
2019-03-26T20:44:22.920Z,78.10
2019-03-26T20:46:53.226Z,78.33
2019-03-26T20:49:23.634Z,78.22
2019-03-26T20:51:53.980Z,78.20
2019-03-26T20:54:24.248Z,78.29
2019-03-26T20:56:54.527Z,78.12
2019-03-26T20:59:25.340Z,78.44
2019-03-26T21:01:55.535Z,78.43
2019-03-26T21:04:25.797Z,78.27
2019-03-26T21:06:56.084Z,78.19
2019-03-26T21:09:26.296Z,78.38
2019-03-26T21:11:56.546Z,78.30
2019-03-26T21:14:26.721Z,78.27
2019-03-26T21:16:56.902Z,78.28
2019-03-26T21:19:27.229Z,78.51
2019-03-26T21:21:57.372Z,78.67
2019-03-26T21:24:27.521Z,78.65
2019-03-26T21:26:57.881Z,78.68
2019-03-26T21:29:28.075Z,78.86
2019-03-26T21:31:58.225Z,79.17
2019-03-26T21:34:30.550Z,79.18
2019-03-26T21:37:00.264Z,79.24
2019-03-26T21:39:30.490Z,79.19
2019-03-26T21:42:00.594Z,79.46
2019-03-26T21:44:30.668Z,79.37
2019-03-26T21:47:00.968Z,79.38
2019-03-26T21:49:31.164Z,79.27
2019-03-26T21:52:01.315Z,79.49
2019-03-26T21:54:31.254Z,79.42
2019-03-26T21:57:01.225Z,79.80
2019-03-26T21:59:31.192Z,79.94
2019-03-26T22:02:01.089Z,79.93
2019-03-26T22:04:31.199Z,80.25
2019-03-26T22:07:00.995Z,80.59
2019-03-26T22:09:30.893Z,80.99
2019-03-26T22:12:00.875Z,81.60
2019-03-26T22:14:31.063Z,81.77
2019-03-26T22:17:01.040Z,82.16
2019-03-26T22:19:31.173Z,82.12
2019-03-26T22:22:01.168Z,82.40
2019-03-26T22:24:31.002Z,83.18
2019-03-26T22:27:01.908Z,83.34
2019-03-26T22:29:31.932Z,83.22
2019-03-26T22:32:02.713Z,83.36
2019-03-26T22:34:32.600Z,83.93
2019-03-26T22:37:02.600Z,84.10
2019-03-26T22:39:32.475Z,84.28
2019-03-26T22:42:02.432Z,84.13
2019-03-26T22:44:32.570Z,84.61
2019-03-26T22:47:02.572Z,84.95
2019-03-26T22:49:32.533Z,85.34
2019-03-26T22:52:02.530Z,85.09
2019-03-26T22:54:32.409Z,85.28
2019-03-26T22:57:02.296Z,85.38
2019-03-26T22:59:32.141Z,85.70
2019-03-26T23:02:02.151Z,85.95
2019-03-26T23:04:31.997Z,86.91
2019-03-26T23:07:01.890Z,87.18
2019-03-26T23:09:31.733Z,87.12
2019-03-26T23:12:01.622Z,87.11
2019-03-26T23:14:44.022Z,87.46
2019-03-26T23:17:03.220Z,87.16
2019-03-26T23:19:33.473Z,87.34
2019-03-26T23:22:03.459Z,87.42
2019-03-26T23:24:34.402Z,87.71
2019-03-26T23:27:04.382Z,88.77
2019-03-26T23:29:34.330Z,88.55
2019-03-26T23:32:04.649Z,88.65
2019-03-26T23:34:34.574Z,88.48
2019-03-26T23:37:04.534Z,88.33
2019-03-26T23:39:34.570Z,88.36
2019-03-26T23:42:04.497Z,88.44
2019-03-26T23:44:34.403Z,88.62
2019-03-26T23:47:04.436Z,88.53
2019-03-26T23:49:34.475Z,88.57
2019-03-26T23:52:04.865Z,89.08
2019-03-26T23:54:34.754Z,89.56
2019-03-26T23:57:05.686Z,90.04
2019-03-26T23:59:35.729Z,90.55
